Time;durP1;ratioP1;P1;durP2;ratioP2;P2;SDS_P1;SDS_P2;PMS_P1;PMS_P2;Temp;Humidity;BMP_temperature;BMP_pressure;BME280_temperature;BME280_humidity;BME280_pressure;Samples;Min_cycle;Max_cycle;Signal;HPM_P1;HPM_P2
2022/10/13 00:01:53;;;;;;;18.98;8.75;;;10.50;99.90;;;;;;6017173;23;20018;-84
2022/10/13 00:04:19;;;;;;;20.40;9.68;;;10.30;99.90;;;;;;6017435;23;20093;-85
2022/10/13 00:06:45;;;;;;;20.70;9.50;;;10.30;99.90;;;;;;6041718;23;20018;-84
2022/10/13 00:09:10;;;;;;;18.02;9.23;;;10.30;99.90;;;;;;6016765;23;20010;-85
2022/10/13 00:11:36;;;;;;;17.98;9.23;;;10.30;99.90;;;;;;6039452;23;20014;-84
2022/10/13 00:14:03;;;;;;;18.92;9.38;;;10.80;99.90;;;;;;6041702;23;20011;-84
2022/10/13 00:16:30;;;;;;;20.27;9.45;;;10.30;99.90;;;;;;6040651;23;20078;-84
2022/10/13 00:18:56;;;;;;;18.25;8.98;;;10.30;99.90;;;;;;6065752;23;20409;-84
2022/10/13 00:21:24;;;;;;;20.10;10.18;;;10.30;99.90;;;;;;6064295;23;20022;-84
2022/10/13 00:23:50;;;;;;;22.30;10.20;;;10.30;99.90;;;;;;6065338;23;20022;-85
2022/10/13 00:26:17;;;;;;;19.15;9.93;;;10.30;99.90;;;;;;6064332;23;20360;-85
2022/10/13 00:28:43;;;;;;;22.52;10.55;;;10.30;99.90;;;;;;6041061;23;20345;-84
2022/10/13 00:31:16;;;;;;;20.42;10.07;;;10.30;99.90;;;;;;6037810;23;20018;-84
2022/10/13 00:33:42;;;;;;;26.42;10.55;;;10.30;99.90;;;;;;6064041;23;20108;-85
2022/10/13 00:36:08;;;;;;;22.42;10.23;;;10.30;99.90;;;;;;6064518;23;20452;-85
2022/10/13 00:38:33;;;;;;;20.73;10.55;;;10.30;99.90;;;;;;6064840;23;20052;-84
2022/10/13 00:40:59;;;;;;;20.73;10.18;;;10.30;99.90;;;;;;6040527;23;20141;-84
2022/10/13 00:43:47;;;;;;;18.90;10.00;;;10.30;99.90;;;;;;6040769;23;20022;-84
2022/10/13 00:46:14;;;;;;;20.40;10.40;;;10.40;99.90;;;;;;6040418;23;20023;-85
2022/10/13 00:48:41;;;;;;;19.92;10.10;;;10.30;99.90;;;;;;6040790;23;20093;-85
2022/10/13 00:51:08;;;;;;;18.25;9.95;;;10.30;99.90;;;;;;6040429;23;20069;-85
2022/10/13 00:53:37;;;;;;;19.75;9.95;;;10.30;99.90;;;;;;6017738;23;20041;-85
2022/10/13 00:56:06;;;;;;;20.17;10.82;;;10.30;99.90;;;;;;6040581;23;20460;-85
2022/10/13 00:58:35;;;;;;;21.48;10.20;;;10.30;99.90;;;;;;6064767;23;20379;-85
2022/10/13 01:01:02;;;;;;;20.75;10.13;;;10.30;99.90;;;;;;6064411;23;20025;-85
2022/10/13 01:03:28;;;;;;;22.48;10.43;;;10.30;99.90;;;;;;6039687;23;20037;-84
2022/10/13 01:05:57;;;;;;;22.17;11.05;;;10.30;99.90;;;;;;6064518;23;20516;-85
2022/10/13 01:08:25;;;;;;;18.95;10.15;;;10.30;99.90;;;;;;6064117;23;20010;-85
2022/10/13 01:11:09;;;;;;;24.85;11.25;;;11.20;99.90;;;;;;6041913;23;20070;-85
2022/10/13 01:14:18;;;;;;;21.55;11.00;;;10.40;99.90;;;;;;6063263;23;20018;-85
2022/10/13 01:17:08;;;;;;;21.90;10.95;;;10.30;99.90;;;;;;6053687;23;20018;-85
2022/10/13 01:20:07;;;;;;;24.52;10.25;;;10.30;99.90;;;;;;6064835;23;20348;-85
2022/10/13 01:22:38;;;;;;;24.58;10.45;;;10.30;99.90;;;;;;6063862;23;20015;-84
2022/10/13 01:25:10;;;;;;;25.20;11.07;;;10.30;99.90;;;;;;6065084;23;20014;-84
2022/10/13 01:28:04;;;;;;;21.27;11.32;;;10.30;99.90;;;;;;6064168;23;20018;-84
2022/10/13 01:30:47;;;;;;;23.60;11.07;;;10.30;99.90;;;;;;6065172;23;20295;-84
2022/10/13 01:33:58;;;;;;;23.13;10.95;;;10.80;99.90;;;;;;6063680;23;20064;-85
2022/10/13 01:36:43;;;;;;;21.83;11.13;;;10.30;99.90;;;;;;5921418;24;20020;-84
2022/10/13 01:39:15;;;;;;;17.65;10.02;;;10.30;99.90;;;;;;5921450;24;20111;-84
2022/10/13 01:41:46;;;;;;;21.40;10.88;;;11.40;99.90;;;;;;6012161;23;20370;-85
2022/10/13 01:44:31;;;;;;;23.85;11.13;;;10.30;99.90;;;;;;6063832;23;20400;-85
2022/10/13 01:46:59;;;;;;;24.25;10.98;;;10.30;99.90;;;;;;6064613;23;20018;-85
2022/10/13 01:49:29;;;;;;;22.58;11.00;;;10.30;99.90;;;;;;6041128;23;20010;-85
2022/10/13 01:52:00;;;;;;;20.60;10.35;;;10.30;99.90;;;;;;6064164;23;20069;-85
2022/10/13 01:54:26;;;;;;;21.70;10.27;;;10.30;99.90;;;;;;6040403;23;20021;-84
2022/10/13 01:56:56;;;;;;;20.33;11.30;;;10.30;99.90;;;;;;6063957;23;20018;-85
2022/10/13 01:59:24;;;;;;;23.02;11.60;;;10.30;99.90;;;;;;6040805;23;20014;-85
2022/10/13 02:02:00;;;;;;;20.35;11.48;;;10.30;99.90;;;;;;6064339;23;20488;-85
2022/10/13 02:04:48;;;;;;;21.55;11.00;;;10.30;99.90;;;;;;6040255;23;20082;-84
2022/10/13 02:07:26;;;;;;;21.58;10.85;;;10.30;99.90;;;;;;6064600;23;20029;-85
2022/10/13 02:09:58;;;;;;;22.10;10.40;;;10.20;99.90;;;;;;6064317;23;20453;-84
2022/10/13 02:12:37;;;;;;;20.67;11.27;;;10.20;99.90;;;;;;6039741;23;20030;-84
2022/10/13 02:15:06;;;;;;;22.80;11.70;;;10.20;99.90;;;;;;6040046;23;20101;-85
2022/10/13 02:17:32;;;;;;;20.95;11.80;;;10.20;99.90;;;;;;6063840;23;20015;-84
2022/10/13 02:19:58;;;;;;;27.20;11.88;;;10.20;99.90;;;;;;6040516;23;20102;-85
2022/10/13 02:22:29;;;;;;;23.10;12.40;;;10.20;99.90;;;;;;6040253;23;20073;-84
2022/10/13 02:24:55;;;;;;;23.13;11.43;;;10.20;99.90;;;;;;6063508;23;20362;-85
2022/10/13 02:27:22;;;;;;;20.75;12.25;;;10.20;99.90;;;;;;6038565;23;20046;-85
2022/10/13 02:29:56;;;;;;;23.55;12.00;;;10.20;99.90;;;;;;6039531;23;20006;-85
2022/10/13 02:32:22;;;;;;;20.67;10.77;;;10.20;99.90;;;;;;6063926;23;20349;-86
2022/10/13 02:34:48;;;;;;;22.73;11.60;;;10.20;99.90;;;;;;6039955;23;20014;-85
2022/10/13 02:37:14;;;;;;;23.15;11.25;;;10.10;99.90;;;;;;6038113;23;20508;-85
2022/10/13 02:39:40;;;;;;;24.20;11.68;;;10.10;99.90;;;;;;6038969;23;20022;-85
2022/10/13 02:42:06;;;;;;;21.77;11.50;;;10.10;99.90;;;;;;6063428;23;20090;-85
2022/10/13 02:44:32;;;;;;;22.58;12.30;;;10.10;99.90;;;;;;6063728;23;20014;-85
2022/10/13 02:46:58;;;;;;;24.75;11.65;;;10.10;99.90;;;;;;6040046;23;20058;-85
2022/10/13 02:49:23;;;;;;;23.20;11.98;;;10.10;99.90;;;;;;6039663;23;20014;-85
2022/10/13 02:51:49;;;;;;;24.02;11.57;;;10.10;99.90;;;;;;6039885;23;20025;-84
2022/10/13 02:54:15;;;;;;;19.48;11.45;;;10.10;99.90;;;;;;6063240;23;20045;-85
2022/10/13 02:56:41;;;;;;;20.77;11.45;;;10.10;99.90;;;;;;6063361;23;20057;-85
2022/10/13 02:59:06;;;;;;;24.75;12.13;;;10.10;99.90;;;;;;6039215;23;20093;-84
2022/10/13 03:01:32;;;;;;;22.33;11.70;;;10.10;99.90;;;;;;6039284;23;20511;-85
2022/10/13 03:03:58;;;;;;;22.90;11.73;;;10.10;99.90;;;;;;6039970;23;20429;-86
2022/10/13 03:06:24;;;;;;;23.35;12.30;;;10.50;99.90;;;;;;6040417;23;20046;-85
2022/10/13 03:08:50;;;;;;;19.58;11.15;;;10.10;99.90;;;;;;6041971;23;20085;-85
2022/10/13 03:11:15;;;;;;;23.65;11.70;;;10.70;99.90;;;;;;6041351;23;20431;-85
2022/10/13 03:13:41;;;;;;;19.25;11.18;;;10.20;99.90;;;;;;6065907;23;20052;-85
2022/10/13 03:16:07;;;;;;;20.70;11.75;;;10.10;99.90;;;;;;6042485;23;20022;-85
2022/10/13 03:18:34;;;;;;;27.23;11.73;;;10.20;99.90;;;;;;6041536;23;20452;-85
2022/10/13 03:21:04;;;;;;;26.13;12.45;;;10.30;99.90;;;;;;6041599;23;20441;-85
2022/10/13 03:23:30;;;;;;;22.45;11.98;;;10.20;99.90;;;;;;6068565;23;20018;-85
2022/10/13 03:25:56;;;;;;;26.00;12.43;;;10.50;99.90;;;;;;6044539;23;20469;-85
2022/10/13 03:28:22;;;;;;;22.77;12.02;;;10.20;99.90;;;;;;6068671;23;20094;-86
2022/10/13 03:30:47;;;;;;;22.42;12.15;;;10.30;99.90;;;;;;6043060;23;20010;-86
2022/10/13 03:33:13;;;;;;;24.20;12.32;;;10.30;99.90;;;;;;6043961;23;20036;-86
2022/10/13 03:35:39;;;;;;;24.65;12.45;;;10.80;99.90;;;;;;6044819;23;20014;-86
2022/10/13 03:38:05;;;;;;;26.50;12.45;;;10.30;99.90;;;;;;6044109;23;20512;-86
2022/10/13 03:40:31;;;;;;;25.50;12.65;;;10.30;99.90;;;;;;6068284;23;20057;-86
2022/10/13 03:42:56;;;;;;;22.95;12.68;;;10.30;99.90;;;;;;6043097;23;20352;-86
2022/10/13 03:45:22;;;;;;;23.48;11.98;;;10.40;99.90;;;;;;6044431;23;20078;-86
2022/10/13 03:47:48;;;;;;;20.75;11.40;;;10.30;99.90;;;;;;6044082;23;20129;-86
2022/10/13 03:50:14;;;;;;;22.42;12.90;;;10.30;99.90;;;;;;6044567;23;20081;-86
2022/10/13 03:52:40;;;;;;;23.90;11.90;;;10.30;99.90;;;;;;6043347;23;20015;-86
2022/10/13 03:55:05;;;;;;;23.23;12.98;;;10.20;99.90;;;;;;6068500;23;20015;-86
2022/10/13 03:57:32;;;;;;;26.48;12.45;;;10.30;99.90;;;;;;6044763;23;20430;-86
2022/10/13 03:59:57;;;;;;;24.30;13.55;;;10.30;99.90;;;;;;6044596;23;20029;-86
2022/10/13 04:02:23;;;;;;;26.40;13.23;;;10.30;99.90;;;;;;6043147;23;20014;-86
2022/10/13 04:04:49;;;;;;;25.25;13.50;;;10.30;99.90;;;;;;6043591;23;20105;-86
2022/10/13 04:07:15;;;;;;;25.95;13.65;;;10.30;99.90;;;;;;6068366;23;20445;-86
2022/10/13 04:09:40;;;;;;;26.92;13.77;;;10.30;99.90;;;;;;6044088;23;20017;-86
2022/10/13 04:12:06;;;;;;;26.00;13.15;;;10.30;99.90;;;;;;6044058;23;20015;-86
2022/10/13 04:14:32;;;;;;;25.27;14.07;;;10.20;99.90;;;;;;6042165;23;20014;-85
2022/10/13 04:16:58;;;;;;;25.48;13.88;;;10.30;99.90;;;;;;6068131;23;20015;-85
2022/10/13 04:19:24;;;;;;;23.63;13.48;;;10.30;99.90;;;;;;6067489;23;20056;-85
2022/10/13 04:21:50;;;;;;;25.42;13.48;;;10.30;99.90;;;;;;6044108;23;20045;-85
2022/10/13 04:24:19;;;;;;;24.48;13.30;;;10.20;99.90;;;;;;6043090;23;20029;-85
2022/10/13 04:26:45;;;;;;;26.63;13.88;;;10.70;99.90;;;;;;6044017;23;20014;-85
2022/10/13 04:29:12;;;;;;;24.67;13.98;;;10.30;99.90;;;;;;6043755;23;20107;-84
2022/10/13 04:31:39;;;;;;;24.02;13.93;;;10.30;99.90;;;;;;6043801;23;20025;-84
2022/10/13 04:34:06;;;;;;;28.65;14.55;;;10.30;99.90;;;;;;6043773;23;20038;-84
2022/10/13 04:36:32;;;;;;;25.98;15.80;;;10.90;99.90;;;;;;6043235;23;20463;-84
2022/10/13 04:38:57;;;;;;;27.42;15.45;;;10.20;99.90;;;;;;6044869;23;20018;-84
2022/10/13 04:41:24;;;;;;;24.08;14.20;;;10.20;99.90;;;;;;6043379;23;20094;-84
2022/10/13 04:43:52;;;;;;;27.13;14.65;;;10.20;99.90;;;;;;6043679;23;20062;-84
2022/10/13 04:46:27;;;;;;;27.33;14.85;;;10.20;99.90;;;;;;6064914;23;20014;-84
2022/10/13 04:48:54;;;;;;;31.27;15.85;;;10.20;99.90;;;;;;6067480;23;20364;-84
2022/10/13 04:51:22;;;;;;;27.45;15.30;;;10.20;99.90;;;;;;6043091;23;20638;-84
2022/10/13 04:53:48;;;;;;;29.50;16.08;;;11.10;99.90;;;;;;6043630;23;20090;-84
2022/10/13 04:56:16;;;;;;;28.55;15.90;;;10.20;99.90;;;;;;6041652;23;20053;-84
2022/10/13 04:58:44;;;;;;;27.05;15.75;;;10.20;99.90;;;;;;6040814;23;20026;-83
2022/10/13 05:01:18;;;;;;;28.05;16.10;;;10.40;99.90;;;;;;6066412;23;20024;-84
2022/10/13 05:03:44;;;;;;;27.90;15.77;;;10.20;99.90;;;;;;6042369;23;20094;-84
2022/10/13 05:06:22;;;;;;;27.17;15.55;;;10.20;99.90;;;;;;6040392;23;20026;-84
2022/10/13 05:08:48;;;;;;;27.13;15.75;;;10.20;99.90;;;;;;6065111;23;20014;-83
2022/10/13 05:11:13;;;;;;;28.15;16.15;;;10.30;99.90;;;;;;6066937;23;20106;-83
2022/10/13 05:13:39;;;;;;;26.42;16.08;;;10.20;99.90;;;;;;6042710;23;20014;-84
2022/10/13 05:16:09;;;;;;;28.60;17.20;;;11.00;99.90;;;;;;6043160;23;20057;-84
2022/10/13 05:18:36;;;;;;;26.48;16.10;;;10.30;99.90;;;;;;6067106;23;20022;-84
2022/10/13 05:21:07;;;;;;;28.20;16.38;;;10.30;99.90;;;;;;6043690;23;20022;-83
2022/10/13 05:23:32;;;;;;;28.00;16.27;;;10.30;99.90;;;;;;6041976;23;20440;-84
2022/10/13 05:26:07;;;;;;;29.58;15.70;;;10.30;99.90;;;;;;6044340;23;20106;-84
2022/10/13 05:28:34;;;;;;;29.25;16.77;;;10.40;99.90;;;;;;6043827;23;20030;-84
2022/10/13 05:31:10;;;;;;;28.58;16.52;;;10.30;99.90;;;;;;6043536;23;20474;-84
2022/10/13 05:33:36;;;;;;;27.83;16.67;;;10.30;99.90;;;;;;6043305;23;20011;-83
2022/10/13 05:36:13;;;;;;;29.33;15.65;;;10.30;99.90;;;;;;6041843;23;20022;-84
2022/10/13 05:38:39;;;;;;;30.08;16.75;;;10.30;99.90;;;;;;6064737;23;20524;-84
2022/10/13 05:41:11;;;;;;;29.90;16.20;;;10.30;99.90;;;;;;6064281;23;20101;-84
2022/10/13 05:43:38;;;;;;;26.85;16.48;;;10.30;99.90;;;;;;6065793;23;20022;-83
2022/10/13 05:46:04;;;;;;;33.17;16.80;;;10.30;99.90;;;;;;6062978;23;20022;-83
2022/10/13 05:48:30;;;;;;;30.63;18.58;;;10.60;99.90;;;;;;6042550;23;20021;-83
2022/10/13 05:50:59;;;;;;;29.45;16.55;;;10.30;99.90;;;;;;6041859;23;20015;-85
2022/10/13 05:53:28;;;;;;;32.65;17.48;;;10.20;99.90;;;;;;6042969;23;20010;-85
2022/10/13 05:55:57;;;;;;;30.58;16.63;;;10.60;99.90;;;;;;6062684;23;20021;-84
2022/10/13 05:58:23;;;;;;;30.67;17.85;;;10.30;99.90;;;;;;6042041;23;20022;-84
2022/10/13 06:00:50;;;;;;;31.92;18.23;;;10.30;99.90;;;;;;6065390;23;20049;-83
2022/10/13 06:03:20;;;;;;;28.73;17.38;;;10.30;99.90;;;;;;6040446;23;20414;-85
2022/10/13 06:05:46;;;;;;;33.30;17.75;;;11.00;99.90;;;;;;6039784;23;20338;-86
2022/10/13 06:08:14;;;;;;;29.27;17.92;;;10.30;99.90;;;;;;6064460;23;20037;-85
2022/10/13 06:10:41;;;;;;;29.73;18.67;;;10.30;99.90;;;;;;6066198;23;20046;-84
2022/10/13 06:13:07;;;;;;;32.22;18.15;;;10.30;99.90;;;;;;6043614;23;20021;-86
2022/10/13 06:15:33;;;;;;;27.13;17.10;;;10.30;99.90;;;;;;6042608;23;20065;-84
2022/10/13 06:17:59;;;;;;;29.85;18.05;;;10.40;99.90;;;;;;6041577;23;20042;-86
2022/10/13 06:20:26;;;;;;;33.33;18.25;;;10.30;99.90;;;;;;6043537;23;20018;-86
2022/10/13 06:22:54;;;;;;;35.85;19.48;;;10.80;99.90;;;;;;6066875;23;20018;-86
2022/10/13 06:25:20;;;;;;;33.03;18.70;;;10.40;99.90;;;;;;6042269;23;20046;-85
2022/10/13 06:27:46;;;;;;;32.70;19.77;;;10.40;99.90;;;;;;6040592;23;20026;-84
2022/10/13 06:30:11;;;;;;;34.92;19.33;;;10.40;99.90;;;;;;6040256;23;20380;-85
2022/10/13 06:32:37;;;;;;;33.72;19.58;;;10.40;99.90;;;;;;6040500;23;20007;-86
2022/10/13 06:35:03;;;;;;;35.78;20.27;;;10.70;99.90;;;;;;6040461;23;20007;-86
2022/10/13 06:37:29;;;;;;;33.47;19.17;;;10.50;99.90;;;;;;6039137;23;20025;-86
2022/10/13 06:39:55;;;;;;;31.10;19.65;;;10.50;99.90;;;;;;6040281;23;20026;-85
2022/10/13 06:42:20;;;;;;;33.60;19.65;;;10.50;99.90;;;;;;6040499;23;20353;-86
2022/10/13 06:44:46;;;;;;;33.60;20.15;;;10.50;99.90;;;;;;6065538;23;20014;-85
2022/10/13 06:47:13;;;;;;;33.28;20.23;;;10.60;99.90;;;;;;6040046;23;20022;-85
2022/10/13 06:49:39;;;;;;;33.30;20.00;;;10.70;99.90;;;;;;6040798;23;20023;-86
2022/10/13 06:52:05;;;;;;;34.15;20.45;;;10.70;99.90;;;;;;6040821;23;20033;-85
2022/10/13 06:54:31;;;;;;;34.30;21.33;;;10.70;99.90;;;;;;6064874;23;20011;-84
2022/10/13 06:56:56;;;;;;;37.75;21.73;;;10.70;99.90;;;;;;6040132;23;20073;-85
2022/10/13 06:59:22;;;;;;;35.45;19.67;;;10.80;99.90;;;;;;6039356;23;20029;-86
2022/10/13 07:01:49;;;;;;;35.80;21.98;;;10.80;99.90;;;;;;6037713;23;20023;-87
2022/10/13 07:04:15;;;;;;;34.40;21.55;;;11.30;99.90;;;;;;6040172;23;20113;-88
2022/10/13 07:06:41;;;;;;;34.05;20.75;;;10.90;99.90;;;;;;6064076;23;20018;-86
2022/10/13 07:09:07;;;;;;;32.30;19.77;;;10.90;99.90;;;;;;6041111;23;20015;-86
2022/10/13 07:11:34;;;;;;;39.45;22.92;;;11.00;99.90;;;;;;6039553;23;20006;-88
2022/10/13 07:14:00;;;;;;;38.08;22.40;;;11.00;99.90;;;;;;6066444;23;20038;-87
2022/10/13 07:16:26;;;;;;;34.90;21.27;;;11.00;99.90;;;;;;6065131;23;20026;-86
2022/10/13 07:18:51;;;;;;;34.58;20.92;;;11.10;99.90;;;;;;6064580;23;20510;-91
2022/10/13 07:21:17;;;;;;;33.38;20.73;;;11.10;99.90;;;;;;6040657;23;20014;-92
2022/10/13 07:23:43;;;;;;;32.67;20.52;;;11.20;99.90;;;;;;6040630;23;20023;-92
2022/10/13 07:26:11;;;;;;;31.70;19.65;;;11.20;99.90;;;;;;6043273;23;20161;-90
2022/10/13 07:28:38;;;;;;;35.33;19.95;;;11.20;99.90;;;;;;6040087;23;20025;-87
2022/10/13 07:31:10;;;;;;;30.45;18.95;;;11.20;99.90;;;;;;6065859;23;20344;-87
2022/10/13 07:33:36;;;;;;;32.25;19.40;;;11.30;99.90;;;;;;6041965;23;20017;-87
2022/10/13 07:36:03;;;;;;;33.28;19.33;;;11.30;99.90;;;;;;6045983;23;20018;-88
2022/10/13 07:38:29;;;;;;;30.45;19.02;;;11.40;99.90;;;;;;6067467;23;20457;-87
2022/10/13 07:40:55;;;;;;;34.47;19.15;;;11.40;99.90;;;;;;6065873;23;20034;-88
2022/10/13 07:43:20;;;;;;;36.45;19.98;;;11.40;99.90;;;;;;6052839;23;20029;-88
2022/10/13 07:45:46;;;;;;;31.42;20.02;;;11.50;99.90;;;;;;6050258;23;20021;-90
2022/10/13 07:48:12;;;;;;;29.83;17.95;;;11.50;99.90;;;;;;6039509;23;20067;-87
2022/10/13 07:50:37;;;;;;;34.00;18.63;;;11.50;99.90;;;;;;6040827;23;20018;-90
2022/10/13 07:53:03;;;;;;;32.00;19.80;;;11.60;99.90;;;;;;6041308;23;20074;-87
2022/10/13 07:55:29;;;;;;;29.92;18.25;;;11.60;99.90;;;;;;6066257;23;20377;-87
2022/10/13 07:57:54;;;;;;;31.05;18.50;;;11.60;99.90;;;;;;6040919;23;20441;-87
2022/10/13 08:00:20;;;;;;;27.85;17.95;;;11.60;99.90;;;;;;6043128;23;20048;-86
2022/10/13 08:02:49;;;;;;;29.33;18.67;;;11.60;99.90;;;;;;6066277;23;20022;-86
2022/10/13 08:05:15;;;;;;;30.90;18.42;;;11.60;99.90;;;;;;6065662;23;20508;-87
2022/10/13 08:07:41;;;;;;;29.73;18.58;;;11.60;99.90;;;;;;6066994;23;20097;-87
2022/10/13 08:10:07;;;;;;;32.10;18.52;;;11.60;99.90;;;;;;6039140;23;20015;-87
2022/10/13 08:12:34;;;;;;;32.53;18.60;;;11.60;99.90;;;;;;6041109;23;20022;-87
2022/10/13 08:15:00;;;;;;;31.02;18.40;;;11.60;99.90;;;;;;6065373;23;20460;-87
2022/10/13 08:17:26;;;;;;;28.25;18.08;;;11.70;99.90;;;;;;6042409;23;20021;-88
2022/10/13 08:19:52;;;;;;;30.90;18.35;;;11.80;99.90;;;;;;6042490;23;20030;-86
2022/10/13 08:22:17;;;;;;;32.58;19.65;;;11.80;99.90;;;;;;6042602;23;20083;-87
2022/10/13 08:24:43;;;;;;;29.15;18.08;;;11.80;99.90;;;;;;6041566;23;20097;-86
2022/10/13 08:27:12;;;;;;;28.60;18.20;;;11.80;99.90;;;;;;6042537;23;20475;-85
2022/10/13 08:29:38;;;;;;;32.28;17.55;;;11.90;99.90;;;;;;6065246;23;20010;-87
2022/10/13 08:32:04;;;;;;;30.33;19.25;;;12.20;99.90;;;;;;6042599;23;20017;-86
2022/10/13 08:34:29;;;;;;;31.08;17.70;;;11.90;99.90;;;;;;6041713;23;20019;-88
2022/10/13 08:36:56;;;;;;;29.40;18.17;;;12.00;99.90;;;;;;6041954;23;20018;-87
2022/10/13 08:39:23;;;;;;;26.83;17.80;;;12.20;99.90;;;;;;6042072;23;20339;-87
2022/10/13 08:41:49;;;;;;;29.48;18.30;;;12.10;99.90;;;;;;6042335;23;20022;-87
2022/10/13 08:44:38;;;;;;;33.28;19.23;;;12.10;99.90;;;;;;6040540;23;20014;-86
2022/10/13 08:47:36;;;;;;;32.72;18.50;;;12.10;99.90;;;;;;6066122;23;20015;-87
2022/10/13 08:50:10;;;;;;;28.63;18.55;;;12.20;99.90;;;;;;6065683;23;20010;-87
2022/10/13 08:52:58;;;;;;;29.65;19.30;;;12.20;99.90;;;;;;6041915;23;20050;-87
2022/10/13 08:55:47;;;;;;;31.23;19.00;;;12.30;99.90;;;;;;6041787;23;20068;-89
2022/10/13 08:58:30;;;;;;;29.10;18.20;;;12.40;99.90;;;;;;6041818;23;20014;-88
2022/10/13 09:01:18;;;;;;;29.48;19.02;;;12.40;99.90;;;;;;6042025;23;20062;-88
2022/10/13 09:03:53;;;;;;;30.65;18.85;;;12.50;99.90;;;;;;6065761;23;20018;-87
2022/10/13 09:06:31;;;;;;;32.75;19.20;;;12.50;99.90;;;;;;6065550;23;20049;-87
2022/10/13 09:08:59;;;;;;;30.13;19.67;;;12.50;99.90;;;;;;6065202;23;20014;-87
2022/10/13 09:11:34;;;;;;;29.27;20.20;;;12.50;99.90;;;;;;6065379;23;20014;-91
2022/10/13 09:14:05;;;;;;;32.92;20.33;;;12.50;99.90;;;;;;6040767;23;20015;-87
2022/10/13 09:16:43;;;;;;;28.70;19.05;;;12.50;99.90;;;;;;6041981;23;20025;-89
2022/10/13 09:19:20;;;;;;;31.55;19.65;;;12.50;99.90;;;;;;6041657;23;20056;-90
2022/10/13 09:21:46;;;;;;;30.73;19.77;;;12.50;99.90;;;;;;6065397;23;20018;-92
2022/10/13 09:24:18;;;;;;;31.35;20.42;;;12.50;99.90;;;;;;6064203;23;20015;-86
2022/10/13 09:26:46;;;;;;;28.73;20.13;;;12.50;99.90;;;;;;6065528;23;20147;-86
2022/10/13 09:29:20;;;;;;;32.03;19.48;;;12.50;99.90;;;;;;6041628;23;20041;-87
2022/10/13 09:31:46;;;;;;;31.33;21.05;;;12.60;99.90;;;;;;6065471;23;20049;-86
2022/10/13 09:34:17;;;;;;;34.20;21.33;;;12.60;99.90;;;;;;6041915;23;20021;-86
2022/10/13 09:37:04;;;;;;;33.40;21.73;;;12.60;99.90;;;;;;6064554;23;20096;-90
2022/10/13 09:39:31;;;;;;;34.03;21.80;;;12.60;99.90;;;;;;6039004;23;20018;-89
2022/10/13 09:42:19;;;;;;;34.95;21.73;;;12.60;99.90;;;;;;6066456;23;20037;-89
2022/10/13 09:44:45;;;;;;;35.08;21.90;;;12.70;99.90;;;;;;6065983;23;20073;-88
2022/10/13 09:47:20;;;;;;;35.40;21.67;;;12.80;99.90;;;;;;6042437;23;20456;-87
2022/10/13 09:49:58;;;;;;;34.15;21.92;;;12.80;99.90;;;;;;6063794;23;20115;-86
2022/10/13 09:52:24;;;;;;;34.97;21.50;;;12.80;99.90;;;;;;6040349;23;20020;-87
2022/10/13 09:54:59;;;;;;;33.72;20.90;;;12.90;99.90;;;;;;6065643;23;20101;-88
2022/10/13 09:57:47;;;;;;;33.28;22.25;;;12.90;99.90;;;;;;6040259;23;20037;-86
2022/10/13 10:00:23;;;;;;;31.17;20.00;;;12.90;99.90;;;;;;6065482;23;20015;-88
2022/10/13 10:03:09;;;;;;;32.22;20.00;;;13.00;99.90;;;;;;6064552;23;20014;-87
2022/10/13 10:05:47;;;;;;;32.92;20.50;;;13.00;99.90;;;;;;6041785;23;20014;-87
2022/10/13 10:08:48;;;;;;;31.05;21.50;;;13.10;99.90;;;;;;6065772;23;20022;-87
2022/10/13 10:11:29;;;;;;;29.17;19.75;;;13.10;99.90;;;;;;6065173;23;20455;-87
2022/10/13 10:13:57;;;;;;;34.08;21.30;;;13.10;99.90;;;;;;6039829;23;20334;-87
2022/10/13 10:16:33;;;;;;;30.45;21.15;;;13.20;99.90;;;;;;6060366;23;20349;-88
2022/10/13 10:19:25;;;;;;;30.38;20.70;;;13.20;99.90;;;;;;6041649;23;20018;-88
2022/10/13 10:22:05;;;;;;;29.80;18.77;;;13.30;99.90;;;;;;6030341;23;20050;-86
2022/10/13 10:24:56;;;;;;;28.02;19.38;;;13.30;99.90;;;;;;6041443;23;20070;-93
2022/10/13 10:27:38;;;;;;;29.15;19.67;;;13.30;99.90;;;;;;6049338;23;20018;-88
2022/10/13 10:30:13;;;;;;;29.27;19.92;;;13.30;99.90;;;;;;6061273;23;20042;-89
2022/10/13 10:33:17;;;;;;;28.02;19.67;;;13.30;99.90;;;;;;6043403;23;20085;-88
2022/10/13 10:35:46;;;;;;;28.60;18.90;;;13.20;99.90;;;;;;6057537;23;20094;-90
2022/10/13 10:38:49;;;;;;;28.52;18.27;;;13.20;99.90;;;;;;6073332;23;20018;-90
2022/10/13 10:42:08;;;;;;;27.55;17.85;;;13.20;99.90;;;;;;6065744;23;20021;-90
2022/10/13 10:44:41;;;;;;;25.73;16.95;;;13.20;99.90;;;;;;5922963;24;20419;-90
2022/10/13 10:47:18;;;;;;;30.02;18.67;;;13.20;99.90;;;;;;5922280;24;20024;-89
2022/10/13 10:49:45;;;;;;;28.10;17.42;;;13.20;99.90;;;;;;6006493;23;20314;-86
2022/10/13 10:52:26;;;;;;;27.75;18.38;;;13.20;99.90;;;;;;6041262;23;20021;-92
2022/10/13 10:55:05;;;;;;;27.42;17.65;;;13.30;99.90;;;;;;6041378;23;20011;-88
2022/10/13 10:57:54;;;;;;;26.90;18.02;;;13.40;99.90;;;;;;6064224;23;20014;-89
2022/10/13 11:00:22;;;;;;;23.52;16.50;;;13.50;99.90;;;;;;6064969;23;20026;-90
2022/10/13 11:02:57;;;;;;;24.10;16.52;;;13.50;99.90;;;;;;6040562;23;20093;-90
2022/10/13 11:05:23;;;;;;;25.15;15.73;;;13.50;99.90;;;;;;6065228;23;20029;-91
2022/10/13 11:07:51;;;;;;;24.85;16.60;;;13.50;99.90;;;;;;6041065;23;20019;-88
2022/10/13 11:10:20;;;;;;;26.13;17.38;;;13.40;99.90;;;;;;6065421;23;20445;-90
2022/10/13 11:12:52;;;;;;;23.25;16.33;;;13.50;99.90;;;;;;6041179;23;20090;-90
2022/10/13 11:15:30;;;;;;;25.85;17.42;;;13.50;99.90;;;;;;6065106;23;20325;-91
2022/10/13 11:17:56;;;;;;;25.48;16.73;;;13.50;99.90;;;;;;6040208;23;20352;-89
2022/10/13 11:20:24;;;;;;;24.85;15.85;;;13.50;99.90;;;;;;6041702;23;20045;-89
2022/10/13 11:22:59;;;;;;;21.48;15.45;;;13.50;99.90;;;;;;6063844;23;20014;-89
2022/10/13 11:25:47;;;;;;;24.42;17.13;;;13.50;99.90;;;;;;6064225;23;20018;-92
2022/10/13 11:28:22;;;;;;;23.52;16.38;;;13.60;99.90;;;;;;6064815;23;20021;-92
2022/10/13 11:30:55;;;;;;;24.88;17.13;;;13.60;99.90;;;;;;6067810;23;20537;-94
2022/10/13 11:33:53;;;;;;;25.63;16.30;;;13.60;99.90;;;;;;6042302;23;20049;-87
2022/10/13 11:36:34;;;;;;;24.63;16.83;;;13.60;99.90;;;;;;6042768;23;20070;-89
2022/10/13 11:39:27;;;;;;;24.45;17.25;;;13.60;99.90;;;;;;6041535;23;20028;-89
2022/10/13 11:42:11;;;;;;;22.30;15.98;;;13.70;99.90;;;;;;6065891;23;20018;-89
2022/10/13 11:44:43;;;;;;;23.20;16.42;;;13.70;99.90;;;;;;6066401;23;20482;-91
2022/10/13 11:47:17;;;;;;;21.92;15.52;;;13.70;99.90;;;;;;6066559;23;20023;-90
2022/10/13 11:50:02;;;;;;;27.10;16.83;;;13.80;99.90;;;;;;6066966;23;20463;-88
2022/10/13 11:53:00;;;;;;;24.05;16.27;;;13.80;99.90;;;;;;6066943;23;20440;-89
2022/10/13 11:55:42;;;;;;;24.15;16.13;;;13.80;99.90;;;;;;5942089;23;20047;-89
2022/10/13 11:58:18;;;;;;;23.38;16.98;;;13.80;99.90;;;;;;6067100;23;20466;-92
2022/10/13 12:00:57;;;;;;;24.00;16.98;;;13.90;99.90;;;;;;6067010;23;20022;-90
2022/10/13 12:03:30;;;;;;;25.30;16.17;;;13.90;99.90;;;;;;6065988;23;20038;-88
2022/10/13 12:06:00;;;;;;;22.45;15.85;;;13.90;99.90;;;;;;6042632;23;20014;-88
2022/10/13 12:08:28;;;;;;;22.15;15.65;;;13.90;99.90;;;;;;6042729;23;20395;-88
2022/10/13 12:10:56;;;;;;;24.80;16.88;;;13.90;99.90;;;;;;6067051;23;20014;-87
2022/10/13 12:13:30;;;;;;;24.58;16.08;;;13.90;99.90;;;;;;6042466;23;20444;-89
2022/10/13 12:16:02;;;;;;;25.20;17.35;;;13.90;99.90;;;;;;6041986;23;20015;-91
2022/10/13 12:18:28;;;;;;;23.88;16.52;;;13.90;99.90;;;;;;6042254;23;20093;-88
2022/10/13 12:20:57;;;;;;;25.58;17.17;;;13.90;99.90;;;;;;6066886;23;20023;-88
2022/10/13 12:23:24;;;;;;;24.65;17.15;;;14.00;99.90;;;;;;6042940;23;20279;-91
2022/10/13 12:25:55;;;;;;;25.60;17.55;;;14.30;99.90;;;;;;6044558;23;20011;-90
2022/10/13 12:28:24;;;;;;;24.67;16.10;;;14.10;99.90;;;;;;6042121;23;20033;-88
2022/10/13 12:30:52;;;;;;;26.48;18.13;;;14.10;99.90;;;;;;6042311;23;20068;-91
2022/10/13 12:33:30;;;;;;;26.25;18.58;;;14.10;99.90;;;;;;6064828;23;20101;-89
2022/10/13 12:36:16;;;;;;;28.13;18.95;;;14.20;99.90;;;;;;6066418;23;20022;-90
2022/10/13 12:38:49;;;;;;;27.48;18.65;;;14.20;99.90;;;;;;6039913;23;20023;-89
2022/10/13 12:41:26;;;;;;;27.02;18.13;;;14.20;99.90;;;;;;6042289;23;20165;-93
2022/10/13 12:43:53;;;;;;;25.98;18.10;;;14.30;99.90;;;;;;6041992;23;20010;-90
2022/10/13 12:46:34;;;;;;;27.60;17.65;;;14.30;99.90;;;;;;6041444;23;20015;-91
2022/10/13 12:49:05;;;;;;;24.25;17.70;;;14.30;99.90;;;;;;6042994;23;20089;-90